createdAt,value
2018-09-02T00:01:40.244Z,99.90
2018-09-02T00:03:45.343Z,99.90
2018-09-02T00:05:56.802Z,99.90
2018-09-02T00:08:01.999Z,99.90
2018-09-02T00:10:08.238Z,99.90
2018-09-02T00:12:12.925Z,99.90
2018-09-02T00:14:17.768Z,99.90
2018-09-02T00:16:22.942Z,99.90
2018-09-02T00:18:27.732Z,99.90
2018-09-02T00:20:32.596Z,99.90
2018-09-02T00:22:37.396Z,99.90
2018-09-02T00:24:42.143Z,99.90
2018-09-02T00:26:46.942Z,99.90
2018-09-02T00:28:51.736Z,99.90
2018-09-02T00:30:56.676Z,99.90
2018-09-02T00:33:01.692Z,99.90
2018-09-02T00:35:06.812Z,99.90
2018-09-02T00:37:11.607Z,99.90
2018-09-02T00:39:16.613Z,99.90
2018-09-02T00:41:21.433Z,99.90
2018-09-02T00:43:26.298Z,99.90
2018-09-02T00:45:31.372Z,99.90
2018-09-02T00:47:36.495Z,99.90
2018-09-02T00:49:41.442Z,99.90
2018-09-02T00:51:46.208Z,99.90
2018-09-02T00:53:51.143Z,99.90
2018-09-02T00:55:55.996Z,99.90
2018-09-02T00:58:01.003Z,99.90
2018-09-02T01:00:06.541Z,99.90
2018-09-02T01:02:11.325Z,99.90
2018-09-02T01:04:18.053Z,99.90
2018-09-02T01:06:22.877Z,99.90
2018-09-02T01:08:28.451Z,99.90
2018-09-02T01:10:34.862Z,99.90
2018-09-02T01:12:39.774Z,99.90
2018-09-02T01:14:44.631Z,99.90
2018-09-02T01:16:49.614Z,99.90
2018-09-02T01:18:54.625Z,99.90
2018-09-02T01:20:59.406Z,99.90
2018-09-02T01:23:04.369Z,99.90
2018-09-02T01:25:09.217Z,99.90
2018-09-02T01:27:14.144Z,99.90
2018-09-02T01:29:19.467Z,99.90
2018-09-02T01:31:24.399Z,99.90
2018-09-02T01:33:29.858Z,99.90
2018-09-02T01:35:35.499Z,99.90
2018-09-02T01:37:40.300Z,99.90
2018-09-02T01:39:45.253Z,99.90
2018-09-02T01:41:50.727Z,99.90
2018-09-02T01:43:57.189Z,99.90
2018-09-02T01:46:02.096Z,99.90
2018-09-02T01:48:07.143Z,99.90
2018-09-02T01:50:11.952Z,99.90
2018-09-02T01:52:16.763Z,99.90
2018-09-02T01:54:21.813Z,99.90
2018-09-02T01:56:26.704Z,99.90
2018-09-02T01:58:31.803Z,99.90
2018-09-02T02:00:36.681Z,99.90
2018-09-02T02:02:41.655Z,99.90
2018-09-02T02:04:46.580Z,99.90
2018-09-02T02:06:51.668Z,99.90
2018-09-02T02:08:56.389Z,99.90
2018-09-02T02:11:01.225Z,99.90
2018-09-02T02:13:06.298Z,99.90
2018-09-02T02:15:11.013Z,99.90
2018-09-02T02:17:15.827Z,99.90
2018-09-02T02:19:20.803Z,99.90
2018-09-02T02:21:25.783Z,99.90
2018-09-02T02:23:30.606Z,99.90
2018-09-02T02:25:35.667Z,99.90
2018-09-02T02:27:40.486Z,99.90
2018-09-02T02:29:45.517Z,99.90
2018-09-02T02:31:50.415Z,99.90
2018-09-02T02:33:55.286Z,99.90
2018-09-02T02:36:00.441Z,99.90
2018-09-02T02:38:05.681Z,99.90
2018-09-02T02:40:10.498Z,99.90
2018-09-02T02:42:15.688Z,99.90
2018-09-02T02:44:20.653Z,99.90
2018-09-02T02:46:25.762Z,99.90
2018-09-02T02:48:30.745Z,99.90
2018-09-02T02:50:35.723Z,99.90
2018-09-02T02:52:45.713Z,99.90
2018-09-02T02:54:50.549Z,99.90
2018-09-02T02:56:55.562Z,99.90
2018-09-02T02:59:00.445Z,99.90
2018-09-02T03:01:05.291Z,99.90
2018-09-02T03:03:10.079Z,99.90
2018-09-02T03:05:14.877Z,99.90
2018-09-02T03:07:19.594Z,99.90
2018-09-02T03:09:24.849Z,99.90
2018-09-02T03:11:29.750Z,99.90
2018-09-02T03:13:34.828Z,99.90
2018-09-02T03:15:39.781Z,99.90
2018-09-02T03:17:44.806Z,99.90
2018-09-02T03:19:49.750Z,99.90
2018-09-02T03:21:54.601Z,99.90
2018-09-02T03:23:59.639Z,99.90
2018-09-02T03:26:04.551Z,99.90
2018-09-02T03:28:10.325Z,99.90
2018-09-02T03:30:15.508Z,99.90
2018-09-02T03:32:20.359Z,99.90
2018-09-02T03:34:25.270Z,99.90
2018-09-02T03:36:30.214Z,99.90
2018-09-02T03:38:35.153Z,99.90
2018-09-02T03:40:40.092Z,99.90
2018-09-02T03:42:45.782Z,99.90
2018-09-02T03:44:50.687Z,99.90
2018-09-02T03:46:55.667Z,99.90
2018-09-02T03:49:00.658Z,99.90
2018-09-02T03:51:05.544Z,99.90
2018-09-02T03:53:10.449Z,99.90
2018-09-02T03:55:15.360Z,99.90
2018-09-02T03:57:20.152Z,99.90
2018-09-02T03:59:25.867Z,99.90
2018-09-02T04:01:30.856Z,99.90
2018-09-02T04:03:35.712Z,99.90
2018-09-02T04:05:40.622Z,99.90
2018-09-02T04:07:45.415Z,99.90
2018-09-02T04:09:50.323Z,99.90
2018-09-02T04:11:55.488Z,99.90
2018-09-02T04:14:00.385Z,99.90
2018-09-02T04:16:05.524Z,99.90
2018-09-02T04:18:10.544Z,99.90
2018-09-02T04:20:19.554Z,99.90
2018-09-02T04:22:25.168Z,99.90
2018-09-02T04:24:30.709Z,99.90
2018-09-02T04:26:45.264Z,99.90
2018-09-02T04:28:50.275Z,99.90
2018-09-02T04:30:55.542Z,99.90
2018-09-02T04:33:00.787Z,99.90
2018-09-02T04:35:06.240Z,99.90
2018-09-02T04:37:11.233Z,99.90
2018-09-02T04:39:16.435Z,99.90
2018-09-02T04:41:21.922Z,99.90
2018-09-02T04:43:27.208Z,99.90
2018-09-02T04:45:32.365Z,99.90
2018-09-02T04:47:37.430Z,99.90
2018-09-02T04:49:42.218Z,99.90
2018-09-02T04:51:47.589Z,99.90
2018-09-02T04:53:52.831Z,99.90
2018-09-02T04:55:57.698Z,99.90
2018-09-02T04:58:02.625Z,99.90
2018-09-02T05:00:08.436Z,99.90
2018-09-02T05:02:13.449Z,99.90
2018-09-02T05:04:18.358Z,99.90
2018-09-02T05:06:23.244Z,99.90
2018-09-02T05:08:28.201Z,99.90
2018-09-02T05:10:33.120Z,99.90
2018-09-02T05:12:37.931Z,99.90
2018-09-02T05:14:43.016Z,99.90
2018-09-02T05:16:47.821Z,99.90
2018-09-02T05:18:52.618Z,99.90
2018-09-02T05:20:57.614Z,99.90
2018-09-02T05:23:02.518Z,99.90
2018-09-02T05:25:07.410Z,99.90
2018-09-02T05:27:12.211Z,99.90
2018-09-02T05:29:17.054Z,99.90
2018-09-02T05:31:21.958Z,99.90
2018-09-02T05:33:26.808Z,99.90
2018-09-02T05:35:31.674Z,99.90
2018-09-02T05:37:36.497Z,99.90
2018-09-02T05:39:41.822Z,99.90
2018-09-02T05:41:46.592Z,99.90
2018-09-02T05:43:51.505Z,99.90
2018-09-02T05:45:56.366Z,99.90
2018-09-02T05:48:01.366Z,99.90
2018-09-02T05:50:06.269Z,99.90
2018-09-02T05:52:11.129Z,99.90
2018-09-02T05:54:15.993Z,99.90
2018-09-02T05:56:20.827Z,99.90
2018-09-02T05:58:25.695Z,99.90
2018-09-02T06:00:30.521Z,99.90
2018-09-02T06:02:35.423Z,99.90
2018-09-02T06:04:40.310Z,99.90
2018-09-02T06:06:45.219Z,99.90
2018-09-02T06:08:49.980Z,99.90
2018-09-02T06:10:54.929Z,99.90
2018-09-02T06:12:59.848Z,99.90
2018-09-02T06:15:04.719Z,99.90
2018-09-02T06:17:09.724Z,99.90
2018-09-02T06:19:14.532Z,99.90
2018-09-02T06:21:19.457Z,99.90
2018-09-02T06:23:24.429Z,99.90
2018-09-02T06:25:31.646Z,99.90
2018-09-02T06:27:36.525Z,99.90
2018-09-02T06:29:41.401Z,99.90
2018-09-02T06:31:46.362Z,99.90
2018-09-02T06:33:51.892Z,99.90
2018-09-02T06:35:57.939Z,99.90
2018-09-02T06:38:04.241Z,99.90
2018-09-02T06:40:09.493Z,99.90
2018-09-02T06:42:14.505Z,99.90
2018-09-02T06:44:19.621Z,99.90
2018-09-02T06:46:25.451Z,99.90
2018-09-02T06:48:32.043Z,99.90
2018-09-02T06:50:38.050Z,99.90
2018-09-02T06:52:42.937Z,99.90
2018-09-02T06:54:47.841Z,99.90
2018-09-02T06:56:52.781Z,99.90
2018-09-02T06:58:57.529Z,99.90
2018-09-02T07:01:02.707Z,99.90
2018-09-02T07:03:09.751Z,99.90
2018-09-02T07:05:14.642Z,99.90
2018-09-02T07:07:19.457Z,99.90
2018-09-02T07:09:24.204Z,99.90
2018-09-02T07:11:29.538Z,99.90
2018-09-02T07:13:35.085Z,99.90
2018-09-02T07:15:43.062Z,99.90
2018-09-02T07:17:47.801Z,99.90
2018-09-02T07:19:52.702Z,99.90
2018-09-02T07:21:57.522Z,99.90
2018-09-02T07:24:02.285Z,99.90
2018-09-02T07:26:07.254Z,99.90
2018-09-02T07:28:11.974Z,99.90
2018-09-02T07:30:16.766Z,99.90
2018-09-02T07:32:22.271Z,99.90
2018-09-02T07:34:27.178Z,99.90
2018-09-02T07:36:32.021Z,99.90
2018-09-02T07:38:37.089Z,99.90
2018-09-02T07:40:41.997Z,99.90
2018-09-02T07:42:47.065Z,99.90
2018-09-02T07:44:52.104Z,99.90
2018-09-02T07:46:57.820Z,99.90
2018-09-02T07:49:02.937Z,99.90
2018-09-02T07:51:07.934Z,99.90
2018-09-02T07:53:12.921Z,99.90
2018-09-02T07:55:17.718Z,99.90
2018-09-02T07:57:28.359Z,99.90
2018-09-02T07:59:33.521Z,99.90
2018-09-02T08:01:38.447Z,99.90
2018-09-02T08:03:43.487Z,99.90
2018-09-02T08:05:48.439Z,99.90
2018-09-02T08:07:53.297Z,99.90
2018-09-02T08:09:58.432Z,99.90
2018-09-02T08:12:03.250Z,99.90
2018-09-02T08:14:08.297Z,99.90
2018-09-02T08:16:13.681Z,99.90
2018-09-02T08:18:19.062Z,99.70
2018-09-02T08:20:24.584Z,99.40
2018-09-02T08:22:30.317Z,99.70
2018-09-02T08:24:35.207Z,99.40
2018-09-02T08:26:40.368Z,98.70
2018-09-02T08:28:45.436Z,98.20
2018-09-02T08:30:50.454Z,97.70
2018-09-02T08:32:55.461Z,97.20
2018-09-02T08:35:00.473Z,97.20
2018-09-02T08:37:05.365Z,96.70
2018-09-02T08:39:11.373Z,96.40
2018-09-02T08:41:16.323Z,96.60
2018-09-02T08:43:21.090Z,96.40
2018-09-02T08:45:26.506Z,96.20
2018-09-02T08:47:31.457Z,95.60
2018-09-02T08:49:36.510Z,95.50
2018-09-02T08:51:41.459Z,95.20
2018-09-02T08:53:46.302Z,95.00
2018-09-02T08:55:51.220Z,95.10
2018-09-02T08:57:56.049Z,95.20
2018-09-02T09:00:01.823Z,95.10
2018-09-02T09:02:06.902Z,95.10
2018-09-02T09:04:11.707Z,94.80
2018-09-02T09:06:16.640Z,94.70
2018-09-02T09:08:21.708Z,94.70
2018-09-02T09:10:26.451Z,94.20
2018-09-02T09:12:31.305Z,94.00
2018-09-02T09:14:38.230Z,93.90
2018-09-02T09:16:43.289Z,93.90
2018-09-02T09:18:48.266Z,93.80
2018-09-02T09:20:53.311Z,92.60
2018-09-02T09:22:58.347Z,92.10
2018-09-02T09:25:03.337Z,91.80
2018-09-02T09:27:08.479Z,90.70
2018-09-02T09:29:14.125Z,90.70
2018-09-02T09:31:20.289Z,90.60
2018-09-02T09:33:25.107Z,90.10
2018-09-02T09:35:29.965Z,89.10
2018-09-02T09:37:34.851Z,88.50
2018-09-02T09:39:39.716Z,87.60
2018-09-02T09:41:44.486Z,84.40
2018-09-02T09:43:49.341Z,83.80
2018-09-02T09:45:54.349Z,84.30
2018-09-02T09:47:59.246Z,82.30
2018-09-02T09:50:04.144Z,81.90
2018-09-02T09:52:09.197Z,81.10
2018-09-02T09:54:13.964Z,80.30
2018-09-02T09:56:18.814Z,78.60
2018-09-02T09:58:25.098Z,77.20
2018-09-02T10:00:36.992Z,76.30
2018-09-02T10:02:42.069Z,75.80
2018-09-02T10:04:46.866Z,75.10
2018-09-02T10:06:51.688Z,75.70
2018-09-02T10:11:09.429Z,75.10
2018-09-02T10:13:14.253Z,75.80
2018-09-02T10:15:19.070Z,74.10
2018-09-02T10:17:24.034Z,74.60
2018-09-02T10:19:28.784Z,74.40
2018-09-02T10:21:33.854Z,74.50
2018-09-02T10:23:38.858Z,73.50
2018-09-02T10:25:43.641Z,71.90
2018-09-02T10:27:48.460Z,72.20
2018-09-02T10:29:53.252Z,72.10
2018-09-02T10:31:58.045Z,72.00
2018-09-02T10:34:02.863Z,71.00
2018-09-02T10:36:08.040Z,71.20
2018-09-02T10:38:12.880Z,71.70
2018-09-02T10:40:17.668Z,71.70
2018-09-02T10:42:22.678Z,71.00
2018-09-02T10:44:27.774Z,70.20
2018-09-02T10:46:32.776Z,70.40
2018-09-02T10:48:37.798Z,69.70
2018-09-02T10:50:42.582Z,69.10
2018-09-02T10:52:47.344Z,70.00
2018-09-02T10:54:52.243Z,68.50
2018-09-02T10:56:57.315Z,67.60
2018-09-02T10:59:02.381Z,68.70
2018-09-02T11:01:07.313Z,69.40
2018-09-02T11:03:18.088Z,69.10
2018-09-02T11:05:24.847Z,69.20
2018-09-02T11:07:29.684Z,69.60
2018-09-02T11:09:34.539Z,70.50
2018-09-02T11:11:39.461Z,70.90
2018-09-02T11:13:44.393Z,69.90
2018-09-02T11:15:49.285Z,70.40
2018-09-02T11:17:54.402Z,71.20
2018-09-02T11:19:59.486Z,70.80
2018-09-02T11:22:04.762Z,71.00
2018-09-02T11:24:09.686Z,71.00
2018-09-02T11:26:14.685Z,71.30
2018-09-02T11:28:19.478Z,70.50
2018-09-02T11:30:24.384Z,70.50
2018-09-02T11:32:29.598Z,71.30
2018-09-02T11:34:34.423Z,70.20
2018-09-02T11:36:39.250Z,69.90
2018-09-02T11:38:44.079Z,70.20
2018-09-02T11:40:48.973Z,69.10
2018-09-02T11:43:00.351Z,68.50
2018-09-02T11:45:05.509Z,68.00
2018-09-02T11:47:10.662Z,67.90
2018-09-02T11:49:16.038Z,68.40
2018-09-02T11:51:20.930Z,67.10
2018-09-02T11:53:26.056Z,67.60
2018-09-02T11:55:30.890Z,67.80
2018-09-02T11:57:35.904Z,67.70
2018-09-02T11:59:40.849Z,66.30
2018-09-02T12:01:45.771Z,65.60
2018-09-02T12:03:50.796Z,66.50
2018-09-02T12:05:55.660Z,66.30
2018-09-02T12:08:00.550Z,66.00
2018-09-02T12:10:05.434Z,65.60
2018-09-02T12:12:10.290Z,65.10
2018-09-02T12:14:15.186Z,65.40
2018-09-02T12:16:21.184Z,65.70
2018-09-02T12:18:26.241Z,66.60
2018-09-02T12:20:31.045Z,66.20
2018-09-02T12:22:36.118Z,66.00
2018-09-02T12:24:40.977Z,66.00
2018-09-02T12:28:54.333Z,66.40
2018-09-02T12:30:59.137Z,64.50
2018-09-02T12:33:04.043Z,65.30
2018-09-02T12:35:08.885Z,64.20
2018-09-02T12:37:13.700Z,65.30
2018-09-02T12:39:18.387Z,65.00
2018-09-02T12:41:23.257Z,64.20
2018-09-02T12:43:28.150Z,64.40
2018-09-02T12:45:34.001Z,65.40
2018-09-02T12:47:39.844Z,65.30
2018-09-02T12:52:13.502Z,63.60
2018-09-02T12:57:10.918Z,63.80
2018-09-02T12:59:39.895Z,63.40
2018-09-02T13:02:11.571Z,63.00
2018-09-02T13:04:17.106Z,62.10
2018-09-02T13:06:22.542Z,62.40
2018-09-02T13:08:28.059Z,62.70
2018-09-02T13:10:33.480Z,63.10
2018-09-02T13:12:39.009Z,62.50
2018-09-02T13:14:44.330Z,61.40
2018-09-02T13:16:49.602Z,62.00
2018-09-02T13:18:54.818Z,63.30
2018-09-02T13:21:00.150Z,62.80
2018-09-02T13:23:05.171Z,61.40
2018-09-02T13:25:10.161Z,61.70
2018-09-02T13:27:15.232Z,61.90
2018-09-02T13:29:20.434Z,62.50
2018-09-02T13:31:25.451Z,62.40
2018-09-02T13:33:30.629Z,62.30
2018-09-02T13:35:35.870Z,62.60
2018-09-02T13:37:40.801Z,61.80
2018-09-02T13:39:45.991Z,61.10
2018-09-02T13:41:50.870Z,61.60
2018-09-02T13:43:55.589Z,61.00
2018-09-02T13:46:00.493Z,61.60
2018-09-02T13:48:05.461Z,60.60
2018-09-02T13:50:10.510Z,60.40
2018-09-02T13:52:15.411Z,60.10
2018-09-02T13:54:20.458Z,59.20
2018-09-02T13:56:25.333Z,58.90
2018-09-02T13:58:30.347Z,58.60
2018-09-02T14:00:35.242Z,59.30
2018-09-02T14:02:40.152Z,60.00
2018-09-02T14:04:45.034Z,59.40
2018-09-02T14:06:50.046Z,59.70
2018-09-02T14:08:55.144Z,60.10
2018-09-02T14:11:00.074Z,60.10
2018-09-02T14:13:04.811Z,60.00
2018-09-02T14:15:09.689Z,59.20
2018-09-02T14:17:14.606Z,59.50
2018-09-02T14:19:19.437Z,59.60
2018-09-02T14:21:24.191Z,60.20
2018-09-02T14:23:29.207Z,60.10
2018-09-02T14:25:34.284Z,60.20
2018-09-02T14:27:39.209Z,59.00
2018-09-02T14:29:45.113Z,58.50
2018-09-02T14:31:50.068Z,57.90
2018-09-02T14:33:55.119Z,57.90
2018-09-02T14:36:05.700Z,57.80
2018-09-02T14:38:10.596Z,58.40
2018-09-02T14:40:15.525Z,57.90
2018-09-02T14:42:20.384Z,59.10
2018-09-02T14:44:25.349Z,58.70
2018-09-02T14:46:30.246Z,58.00
2018-09-02T14:48:35.265Z,57.70
2018-09-02T14:50:40.078Z,57.00
2018-09-02T14:52:46.376Z,57.50
2018-09-02T14:54:53.059Z,58.20
2018-09-02T14:56:59.847Z,58.00
2018-09-02T14:59:05.275Z,57.80
2018-09-02T15:01:10.273Z,57.40
2018-09-02T15:03:15.158Z,57.70
2018-09-02T15:05:19.933Z,57.60
2018-09-02T15:07:25.030Z,58.40
2018-09-02T15:09:29.969Z,57.70
2018-09-02T15:11:34.851Z,57.70
2018-09-02T15:13:39.652Z,57.30
2018-09-02T15:15:44.508Z,56.90
2018-09-02T15:17:49.378Z,57.00
2018-09-02T15:19:54.637Z,56.70
2018-09-02T15:21:59.936Z,56.70
2018-09-02T15:24:05.018Z,56.70
2018-09-02T15:26:10.047Z,56.40
2018-09-02T15:28:15.006Z,57.20
2018-09-02T15:30:20.382Z,55.90
2018-09-02T15:32:25.401Z,55.80
2018-09-02T15:34:30.468Z,55.80
2018-09-02T15:36:35.504Z,55.80
2018-09-02T15:38:40.581Z,55.30
2018-09-02T15:40:45.590Z,55.50
2018-09-02T15:42:50.745Z,55.50
2018-09-02T15:44:55.653Z,55.50
2018-09-02T15:47:00.604Z,55.60
2018-09-02T15:49:05.506Z,55.60
2018-09-02T15:51:10.430Z,54.90
2018-09-02T15:53:15.195Z,55.10
2018-09-02T15:55:20.068Z,55.30
2018-09-02T15:57:25.032Z,55.60
2018-09-02T15:59:29.947Z,55.50
2018-09-02T16:01:34.781Z,54.70
2018-09-02T16:03:39.724Z,54.60
2018-09-02T16:05:44.492Z,54.00
2018-09-02T16:07:50.070Z,52.80
2018-09-02T16:09:54.838Z,53.50
2018-09-02T16:11:59.665Z,52.00
2018-09-02T16:14:04.515Z,50.90
2018-09-02T16:16:09.398Z,50.30
2018-09-02T16:18:14.270Z,49.80
2018-09-02T16:20:19.148Z,48.70
2018-09-02T16:22:24.177Z,48.50
2018-09-02T16:24:29.078Z,48.40
2018-09-02T16:26:33.852Z,48.50
2018-09-02T16:28:38.575Z,48.30
2018-09-02T16:30:43.418Z,47.60
2018-09-02T16:32:48.312Z,46.90
2018-09-02T16:34:53.203Z,46.30
2018-09-02T16:36:57.971Z,46.40
2018-09-02T16:39:03.151Z,46.80
2018-09-02T16:41:07.971Z,46.80
2018-09-02T16:43:12.897Z,47.00
2018-09-02T16:45:17.764Z,47.10
2018-09-02T16:47:22.720Z,47.70
2018-09-02T16:49:27.655Z,48.30
2018-09-02T16:51:32.488Z,48.30
2018-09-02T16:53:37.370Z,48.70
2018-09-02T16:55:42.206Z,49.10
2018-09-02T16:57:47.330Z,49.80
2018-09-02T16:59:52.243Z,50.40
2018-09-02T17:01:57.111Z,50.80
2018-09-02T17:04:04.656Z,51.70
2018-09-02T17:06:09.638Z,51.50
2018-09-02T17:08:18.873Z,51.20
2018-09-02T17:10:23.975Z,51.70
2018-09-02T17:12:29.761Z,51.50
2018-09-02T17:14:34.903Z,51.80
2018-09-02T17:16:39.824Z,52.20
2018-09-02T17:18:44.758Z,52.40
2018-09-02T17:20:50.741Z,52.70
2018-09-02T17:22:59.485Z,52.60
2018-09-02T17:25:04.535Z,52.90
2018-09-02T17:27:10.339Z,53.00
2018-09-02T17:29:15.280Z,53.20
2018-09-02T17:31:20.666Z,53.60
2018-09-02T17:33:26.640Z,54.00
2018-09-02T17:35:33.542Z,53.80
2018-09-02T17:37:38.789Z,54.10
2018-09-02T17:39:44.316Z,54.40
2018-09-02T17:41:49.648Z,54.70
2018-09-02T17:43:55.119Z,54.60
2018-09-02T17:46:00.004Z,55.00
2018-09-02T17:48:04.876Z,55.40
2018-09-02T17:50:10.197Z,55.80
2018-09-02T17:52:15.893Z,54.90
2018-09-02T17:54:21.936Z,55.30
2018-09-02T17:56:27.552Z,55.30
2018-09-02T17:58:35.581Z,55.70
2018-09-02T18:00:47.413Z,55.90
2018-09-02T18:02:56.246Z,56.10
2018-09-02T18:05:01.826Z,55.70
2018-09-02T18:07:08.096Z,56.20
2018-09-02T18:09:17.618Z,56.10
2018-09-02T18:11:22.562Z,55.90
2018-09-02T18:13:29.126Z,55.80
2018-09-02T18:15:34.302Z,55.70
2018-09-02T18:17:39.135Z,56.00
2018-09-02T18:19:50.735Z,56.20
2018-09-02T18:21:55.934Z,56.30
2018-09-02T18:24:00.748Z,56.40
2018-09-02T18:26:06.470Z,56.60
2018-09-02T18:28:14.815Z,56.50
2018-09-02T18:30:19.639Z,56.60
2018-09-02T18:32:24.912Z,56.80
2018-09-02T18:34:29.856Z,56.70
2018-09-02T18:36:34.947Z,57.20
2018-09-02T18:38:40.680Z,57.30
2018-09-02T18:40:45.762Z,57.30
2018-09-02T18:42:53.384Z,57.40
2018-09-02T18:44:59.867Z,57.50
2018-09-02T18:47:05.304Z,57.70
2018-09-02T18:49:13.749Z,58.00
2018-09-02T18:51:19.777Z,58.20
2018-09-02T18:53:29.111Z,58.40
2018-09-02T18:55:34.591Z,58.60
2018-09-02T18:57:40.309Z,58.60
2018-09-02T18:59:45.815Z,58.50
2018-09-02T19:01:53.437Z,58.70
2018-09-02T19:03:59.243Z,59.00
2018-09-02T19:06:06.240Z,58.80
2018-09-02T19:08:14.563Z,58.80
2018-09-02T19:10:20.409Z,58.80
2018-09-02T19:12:27.154Z,58.80
2018-09-02T19:14:32.787Z,59.20
2018-09-02T19:16:37.755Z,59.30
2018-09-02T19:18:43.705Z,59.30
2018-09-02T19:20:49.780Z,59.50
2018-09-02T19:22:56.512Z,60.40
2018-09-02T19:25:04.543Z,60.50
2018-09-02T19:27:11.361Z,60.50
2018-09-02T19:29:17.378Z,60.80
2018-09-02T19:31:23.757Z,61.00
2018-09-02T19:33:30.819Z,60.80
2018-09-02T19:35:40.612Z,60.70
2018-09-02T19:37:47.423Z,60.80
2018-09-02T19:39:56.037Z,61.40
2018-09-02T19:42:01.017Z,62.00
2018-09-02T19:44:06.266Z,61.10
2018-09-02T19:46:14.305Z,61.30
2018-09-02T19:48:21.170Z,61.60
2018-09-02T19:50:30.414Z,61.70
2018-09-02T19:52:38.818Z,61.40
2018-09-02T19:54:44.695Z,61.70
2018-09-02T19:56:49.968Z,61.70
2018-09-02T19:58:56.750Z,62.00
2018-09-02T20:01:04.172Z,61.90
2018-09-02T20:03:12.850Z,62.20
2018-09-02T20:05:18.635Z,62.60
2018-09-02T20:07:26.097Z,62.90
2018-09-02T20:09:35.394Z,63.40
2018-09-02T20:11:40.655Z,64.00
2018-09-02T20:13:47.580Z,64.60
2018-09-02T20:15:52.896Z,64.60
2018-09-02T20:17:57.874Z,66.00
2018-09-02T20:20:02.699Z,65.50
2018-09-02T20:22:11.807Z,65.60
2018-09-02T20:24:16.907Z,65.90
2018-09-02T20:26:22.158Z,66.50
2018-09-02T20:28:27.351Z,67.10
2018-09-02T20:30:32.691Z,66.40
2018-09-02T20:32:37.849Z,66.50
2018-09-02T20:34:42.880Z,66.70
2018-09-02T20:36:47.961Z,67.10
2018-09-02T20:38:53.307Z,67.00
2018-09-02T20:40:58.350Z,66.80
2018-09-02T20:43:03.366Z,67.20
2018-09-02T20:45:08.784Z,67.50
2018-09-02T20:47:13.986Z,67.80
2018-09-02T20:49:18.797Z,68.10
2018-09-02T20:51:23.773Z,68.40
2018-09-02T20:53:29.036Z,68.50
2018-09-02T20:55:33.930Z,69.10
2018-09-02T20:57:38.832Z,69.10
2018-09-02T20:59:43.773Z,69.20
2018-09-02T21:01:48.754Z,69.80
2018-09-02T21:03:53.771Z,69.70
2018-09-02T21:05:58.842Z,70.10
2018-09-02T21:08:03.821Z,70.20
2018-09-02T21:10:08.766Z,70.50
2018-09-02T21:12:13.603Z,70.50
2018-09-02T21:14:19.960Z,70.80
2018-09-02T21:16:26.709Z,70.90
2018-09-02T21:18:32.209Z,71.10
2018-09-02T21:20:37.018Z,71.40
2018-09-02T21:22:41.917Z,71.70
2018-09-02T21:24:46.873Z,71.90
2018-09-02T21:26:51.988Z,72.20
2018-09-02T21:28:56.860Z,72.70
2018-09-02T21:31:01.823Z,72.50
2018-09-02T21:33:06.981Z,72.80
2018-09-02T21:35:11.855Z,72.90
2018-09-02T21:37:16.718Z,73.10
2018-09-02T21:39:21.475Z,73.30
2018-09-02T21:41:26.269Z,73.40
2018-09-02T21:43:31.196Z,73.70
2018-09-02T21:45:36.146Z,73.70
2018-09-02T21:47:40.912Z,73.80
2018-09-02T21:49:46.004Z,74.00
2018-09-02T21:51:50.771Z,74.20
2018-09-02T21:53:55.649Z,74.30
2018-09-02T21:56:00.537Z,74.50
2018-09-02T21:58:09.031Z,74.80
2018-09-02T22:00:16.244Z,74.90
2018-09-02T22:02:21.246Z,75.20
2018-09-02T22:04:26.154Z,75.60
2018-09-02T22:06:31.033Z,76.10
2018-09-02T22:08:36.354Z,76.00
2018-09-02T22:10:41.178Z,76.20
2018-09-02T22:12:46.005Z,76.30
2018-09-02T22:14:50.894Z,76.80
2018-09-02T22:16:55.825Z,77.40
2018-09-02T22:19:01.752Z,77.10
2018-09-02T22:21:06.676Z,77.70
2018-09-02T22:23:11.797Z,77.80
2018-09-02T22:25:16.845Z,78.20
2018-09-02T22:27:21.678Z,78.40
2018-09-02T22:29:26.893Z,78.80
2018-09-02T22:31:31.858Z,79.40
2018-09-02T22:33:36.976Z,80.20
2018-09-02T22:35:41.892Z,80.80
2018-09-02T22:37:46.637Z,81.30
2018-09-02T22:39:51.445Z,81.70
2018-09-02T22:41:56.297Z,82.10
2018-09-02T22:44:01.199Z,82.50
2018-09-02T22:46:06.021Z,82.60
2018-09-02T22:48:10.885Z,82.80
2018-09-02T22:50:17.967Z,83.40
2018-09-02T22:52:22.955Z,83.80
2018-09-02T22:54:27.864Z,84.40
2018-09-02T22:56:32.661Z,84.90
2018-09-02T22:58:37.505Z,85.50
2018-09-02T23:00:42.473Z,86.00
2018-09-02T23:02:47.291Z,86.50
2018-09-02T23:04:52.283Z,87.20
2018-09-02T23:06:57.066Z,87.60
2018-09-02T23:09:01.924Z,88.00
2018-09-02T23:11:06.955Z,88.60
2018-09-02T23:13:12.745Z,88.70
2018-09-02T23:15:17.860Z,89.00
2018-09-02T23:17:23.035Z,89.50
2018-09-02T23:19:27.992Z,89.70
2018-09-02T23:21:32.775Z,90.00
2018-09-02T23:23:37.935Z,90.10
2018-09-02T23:25:42.744Z,90.30
2018-09-02T23:27:47.612Z,90.60
2018-09-02T23:29:52.574Z,90.90
2018-09-02T23:31:57.343Z,91.10
2018-09-02T23:34:02.463Z,91.30
2018-09-02T23:36:07.413Z,91.60
2018-09-02T23:38:12.390Z,91.80
2018-09-02T23:40:17.334Z,92.60
2018-09-02T23:42:22.169Z,92.40
2018-09-02T23:44:26.956Z,92.50
2018-09-02T23:46:31.753Z,92.90
2018-09-02T23:48:36.786Z,93.20
2018-09-02T23:50:41.705Z,93.30
2018-09-02T23:52:46.428Z,93.30
2018-09-02T23:54:51.552Z,93.60
2018-09-02T23:56:56.472Z,93.70
2018-09-02T23:59:01.198Z,94.00
